Langley, British Columbia

2:37 PM PDT on August 31, 2015 (GMT -0700)
East Cloverdale | | Change Station
CLOSE
Current Station
Personal Weather Station
Location: Surrey, BC
Elevation: 110 ft
Nearby Weather Stations

Elev 110 ft 49.12 °N, 122.68 °W | Updated 7 minutes ago

Light Rain
Light Rain Mist
60.1 °F
Feels Like 60.1 °F
N
3.0
Wind Variable Wind from South
Gusts 16.0 mph

Today
High -- | Low -- °F
--% Chance of Precip.
Yesterday
High -- | Low -- °F
Precip. -- in
6:25 AM 7:55 PM
Waning Gibbous, 93% visible
Pressure 29.88 in
Visibility 6.0 miles
Clouds Scattered Clouds 2000 ft
Overcast 2800 ft
Dew Point 56 °F
Humidity 86%
Rainfall 0.50 in
Snow Depth Not available.
UV 2 out of 12
Pollen Not available.
Air Quality Not available.
Flu Activity Not available.
SPECI CYXX 312126Z 18014G23KT 6SM -RA BR SCT020 OVC028 16/14 A2988 RMK SF3SC5 SLP118 DENSITY ALT 300FT
Pressure 29.88 in
Visibility 6.0 miles
Clouds Scattered Clouds 2000 ft
Overcast 2800 ft
Dew Point 56 °F
Humidity 86%
Rainfall 0.50 in
Snow Depth Not available.
UV 2 out of 12
Pollen Not available.
Air Quality Not available.
Flu Activity Not available.
SPECI CYXX 312126Z 18014G23KT 6SM -RA BR SCT020 OVC028 16/14 A2988 RMK SF3SC5 SLP118 DENSITY ALT 300FT

10-Day Weather Forecast

×

Almanac

Astronomy

Aug. 31, 2015 Rise Set
Actual Time
Civil Twilight
Nautical Twilight
Astronomical Twilight
Moon
Length of Visible Light
Length of Day
Tomorrow will be .
, % of the Moon is Illuminated

Today's Extremes

Country Highs Country Lows

Community

WunderPhotos

Upload Photos

1,851,377 photos uploaded!

WunderBlogs® & News

Nearby

Air Quality

  Air Quality AQ Index Pollutant
Not available.

Snow Depth

Station Depth Elevation

Earthquake Activity

City Distance Mag. Time & Date
Minimum magnitude displayed is 2.5.

Coastal Water Temperatures

Place Temperature

Stations

Nearby Weather Stations

Station Location Temp. Windchill Dew Point Humidity Wind Precip. Elev Updated Type